sensor_id;sensor_type;location;lat;lon;timestamp;P1;durP1;ratioP1;P2;durP2;ratioP2
2848;SDS011;59355;52.416;13.412;2023-04-24T00:02:03;8.13;;;7.23;;
2848;SDS011;59355;52.416;13.412;2023-04-24T00:04:29;8.07;;;7.27;;
2848;SDS011;59355;52.416;13.412;2023-04-24T00:06:55;7.57;;;6.87;;
2848;SDS011;59355;52.416;13.412;2023-04-24T00:09:21;7.63;;;7.03;;
2848;SDS011;59355;52.416;13.412;2023-04-24T00:11:47;7.80;;;6.80;;
2848;SDS011;59355;52.416;13.412;2023-04-24T00:14:12;7.60;;;6.90;;
2848;SDS011;59355;52.416;13.412;2023-04-24T00:16:37;10.03;;;7.00;;
2848;SDS011;59355;52.416;13.412;2023-04-24T00:19:03;9.20;;;8.40;;
2848;SDS011;59355;52.416;13.412;2023-04-24T00:21:28;10.67;;;9.57;;
2848;SDS011;59355;52.416;13.412;2023-04-24T00:23:54;8.70;;;7.90;;
2848;SDS011;59355;52.416;13.412;2023-04-24T00:26:20;8.00;;;7.30;;
2848;SDS011;59355;52.416;13.412;2023-04-24T00:28:45;8.33;;;7.53;;
2848;SDS011;59355;52.416;13.412;2023-04-24T00:31:10;8.90;;;8.10;;
2848;SDS011;59355;52.416;13.412;2023-04-24T00:33:36;9.13;;;8.13;;
2848;SDS011;59355;52.416;13.412;2023-04-24T00:36:01;8.90;;;8.20;;
2848;SDS011;59355;52.416;13.412;2023-04-24T00:38:26;9.43;;;8.60;;
2848;SDS011;59355;52.416;13.412;2023-04-24T00:40:52;9.13;;;8.33;;
2848;SDS011;59355;52.416;13.412;2023-04-24T00:43:18;8.70;;;7.90;;
2848;SDS011;59355;52.416;13.412;2023-04-24T00:45:44;8.47;;;7.77;;
2848;SDS011;59355;52.416;13.412;2023-04-24T00:48:09;8.67;;;7.97;;
2848;SDS011;59355;52.416;13.412;2023-04-24T00:50:35;8.40;;;7.63;;
2848;SDS011;59355;52.416;13.412;2023-04-24T00:53:02;9.10;;;8.30;;
2848;SDS011;59355;52.416;13.412;2023-04-24T00:55:27;9.60;;;8.70;;
2848;SDS011;59355;52.416;13.412;2023-04-24T00:57:53;9.80;;;8.80;;
2848;SDS011;59355;52.416;13.412;2023-04-24T01:00:18;9.70;;;8.70;;
2848;SDS011;59355;52.416;13.412;2023-04-24T01:02:44;9.83;;;8.93;;
2848;SDS011;59355;52.416;13.412;2023-04-24T01:05:10;8.37;;;7.57;;
2848;SDS011;59355;52.416;13.412;2023-04-24T01:07:36;8.97;;;8.10;;
2848;SDS011;59355;52.416;13.412;2023-04-24T01:10:02;10.93;;;8.90;;
2848;SDS011;59355;52.416;13.412;2023-04-24T01:12:27;8.57;;;7.87;;
2848;SDS011;59355;52.416;13.412;2023-04-24T01:14:53;8.33;;;7.63;;
2848;SDS011;59355;52.416;13.412;2023-04-24T01:17:18;9.00;;;8.30;;
2848;SDS011;59355;52.416;13.412;2023-04-24T01:19:43;9.53;;;8.70;;
2848;SDS011;59355;52.416;13.412;2023-04-24T01:22:13;11.63;;;8.00;;
2848;SDS011;59355;52.416;13.412;2023-04-24T01:24:39;9.70;;;8.83;;
2848;SDS011;59355;52.416;13.412;2023-04-24T01:27:05;10.60;;;8.83;;
2848;SDS011;59355;52.416;13.412;2023-04-24T01:29:31;9.10;;;8.40;;
2848;SDS011;59355;52.416;13.412;2023-04-24T01:31:56;8.77;;;8.07;;
2848;SDS011;59355;52.416;13.412;2023-04-24T01:34:23;9.33;;;8.57;;
2848;SDS011;59355;52.416;13.412;2023-04-24T01:36:48;10.40;;;9.40;;
2848;SDS011;59355;52.416;13.412;2023-04-24T01:39:15;9.80;;;8.93;;
2848;SDS011;59355;52.416;13.412;2023-04-24T01:41:41;9.40;;;8.60;;
2848;SDS011;59355;52.416;13.412;2023-04-24T01:44:07;9.33;;;8.43;;
2848;SDS011;59355;52.416;13.412;2023-04-24T01:46:32;10.93;;;9.93;;
2848;SDS011;59355;52.416;13.412;2023-04-24T01:48:59;9.80;;;8.90;;
2848;SDS011;59355;52.416;13.412;2023-04-24T01:51:25;9.80;;;8.80;;
2848;SDS011;59355;52.416;13.412;2023-04-24T01:53:50;8.97;;;8.27;;
2848;SDS011;59355;52.416;13.412;2023-04-24T01:56:16;9.63;;;8.80;;
2848;SDS011;59355;52.416;13.412;2023-04-24T01:58:41;10.50;;;9.40;;
2848;SDS011;59355;52.416;13.412;2023-04-24T02:01:08;9.90;;;9.03;;
2848;SDS011;59355;52.416;13.412;2023-04-24T02:03:33;9.37;;;8.57;;
2848;SDS011;59355;52.416;13.412;2023-04-24T02:05:58;9.00;;;8.20;;
2848;SDS011;59355;52.416;13.412;2023-04-24T02:08:23;10.23;;;9.23;;
2848;SDS011;59355;52.416;13.412;2023-04-24T02:10:49;11.20;;;10.27;;
2848;SDS011;59355;52.416;13.412;2023-04-24T02:13:14;11.63;;;10.53;;
2848;SDS011;59355;52.416;13.412;2023-04-24T02:15:39;8.80;;;8.10;;
2848;SDS011;59355;52.416;13.412;2023-04-24T02:18:05;9.97;;;9.10;;
2848;SDS011;59355;52.416;13.412;2023-04-24T02:20:31;10.30;;;9.40;;
2848;SDS011;59355;52.416;13.412;2023-04-24T02:22:58;9.67;;;8.77;;
2848;SDS011;59355;52.416;13.412;2023-04-24T02:25:24;9.90;;;9.00;;
2848;SDS011;59355;52.416;13.412;2023-04-24T02:27:49;10.70;;;9.57;;
2848;SDS011;59355;52.416;13.412;2023-04-24T02:30:15;10.20;;;9.20;;
2848;SDS011;59355;52.416;13.412;2023-04-24T02:32:40;10.33;;;8.70;;
2848;SDS011;59355;52.416;13.412;2023-04-24T02:35:05;9.53;;;8.80;;
2848;SDS011;59355;52.416;13.412;2023-04-24T02:37:31;9.90;;;9.10;;
2848;SDS011;59355;52.416;13.412;2023-04-24T02:39:56;9.80;;;8.80;;
2848;SDS011;59355;52.416;13.412;2023-04-24T02:42:21;10.33;;;8.70;;
2848;SDS011;59355;52.416;13.412;2023-04-24T02:44:47;8.50;;;7.80;;
2848;SDS011;59355;52.416;13.412;2023-04-24T02:47:12;10.43;;;9.53;;
2848;SDS011;59355;52.416;13.412;2023-04-24T02:49:37;9.90;;;9.00;;
2848;SDS011;59355;52.416;13.412;2023-04-24T02:52:03;10.00;;;9.00;;
2848;SDS011;59355;52.416;13.412;2023-04-24T02:54:28;10.37;;;9.47;;
2848;SDS011;59355;52.416;13.412;2023-04-24T02:56:53;9.67;;;8.83;;
2848;SDS011;59355;52.416;13.412;2023-04-24T02:59:19;8.53;;;7.83;;
2848;SDS011;59355;52.416;13.412;2023-04-24T03:01:44;10.20;;;8.70;;
2848;SDS011;59355;52.416;13.412;2023-04-24T03:04:09;9.57;;;8.70;;
2848;SDS011;59355;52.416;13.412;2023-04-24T03:06:35;9.67;;;8.87;;
2848;SDS011;59355;52.416;13.412;2023-04-24T03:09:01;10.00;;;8.90;;
2848;SDS011;59355;52.416;13.412;2023-04-24T03:11:26;9.77;;;8.87;;
2848;SDS011;59355;52.416;13.412;2023-04-24T03:13:51;10.13;;;9.30;;
2848;SDS011;59355;52.416;13.412;2023-04-24T03:16:17;10.50;;;9.10;;
2848;SDS011;59355;52.416;13.412;2023-04-24T03:18:42;9.63;;;8.83;;
2848;SDS011;59355;52.416;13.412;2023-04-24T03:21:07;9.73;;;8.93;;
2848;SDS011;59355;52.416;13.412;2023-04-24T03:23:33;11.00;;;8.67;;
2848;SDS011;59355;52.416;13.412;2023-04-24T03:25:58;10.33;;;9.37;;
2848;SDS011;59355;52.416;13.412;2023-04-24T03:28:24;11.37;;;10.37;;
2848;SDS011;59355;52.416;13.412;2023-04-24T03:30:50;10.00;;;8.83;;
2848;SDS011;59355;52.416;13.412;2023-04-24T03:33:15;10.17;;;9.33;;
2848;SDS011;59355;52.416;13.412;2023-04-24T03:35:40;9.13;;;8.37;;
2848;SDS011;59355;52.416;13.412;2023-04-24T03:38:06;9.97;;;9.17;;
2848;SDS011;59355;52.416;13.412;2023-04-24T03:40:31;9.43;;;8.53;;
2848;SDS011;59355;52.416;13.412;2023-04-24T03:42:58;9.40;;;8.50;;
2848;SDS011;59355;52.416;13.412;2023-04-24T03:45:23;9.37;;;8.57;;
2848;SDS011;59355;52.416;13.412;2023-04-24T03:47:49;10.67;;;9.57;;
2848;SDS011;59355;52.416;13.412;2023-04-24T03:50:14;9.00;;;8.30;;
2848;SDS011;59355;52.416;13.412;2023-04-24T03:52:40;9.50;;;8.70;;
2848;SDS011;59355;52.416;13.412;2023-04-24T03:55:05;10.00;;;9.10;;
2848;SDS011;59355;52.416;13.412;2023-04-24T03:57:31;9.90;;;9.10;;
2848;SDS011;59355;52.416;13.412;2023-04-24T03:59:56;10.20;;;9.40;;
2848;SDS011;59355;52.416;13.412;2023-04-24T04:02:22;9.30;;;8.30;;
2848;SDS011;59355;52.416;13.412;2023-04-24T04:04:47;10.47;;;9.47;;
2848;SDS011;59355;52.416;13.412;2023-04-24T04:07:12;9.10;;;8.30;;
2848;SDS011;59355;52.416;13.412;2023-04-24T04:09:38;10.60;;;9.70;;
2848;SDS011;59355;52.416;13.412;2023-04-24T04:12:03;9.50;;;8.70;;
2848;SDS011;59355;52.416;13.412;2023-04-24T04:14:29;9.10;;;8.20;;
2848;SDS011;59355;52.416;13.412;2023-04-24T04:16:54;10.03;;;9.13;;
2848;SDS011;59355;52.416;13.412;2023-04-24T04:19:19;9.30;;;8.50;;
2848;SDS011;59355;52.416;13.412;2023-04-24T04:21:45;8.63;;;8.00;;
2848;SDS011;59355;52.416;13.412;2023-04-24T04:24:11;10.07;;;9.07;;
2848;SDS011;59355;52.416;13.412;2023-04-24T04:26:36;8.90;;;8.23;;
2848;SDS011;59355;52.416;13.412;2023-04-24T04:29:02;9.93;;;9.10;;
2848;SDS011;59355;52.416;13.412;2023-04-24T04:31:28;8.90;;;8.10;;
2848;SDS011;59355;52.416;13.412;2023-04-24T04:33:54;9.70;;;8.90;;
2848;SDS011;59355;52.416;13.412;2023-04-24T04:36:19;10.40;;;9.47;;
2848;SDS011;59355;52.416;13.412;2023-04-24T04:38:45;8.33;;;7.63;;
2848;SDS011;59355;52.416;13.412;2023-04-24T04:41:10;8.43;;;7.63;;
2848;SDS011;59355;52.416;13.412;2023-04-24T04:43:35;8.73;;;8.03;;
2848;SDS011;59355;52.416;13.412;2023-04-24T04:46:01;8.90;;;8.10;;
2848;SDS011;59355;52.416;13.412;2023-04-24T04:48:28;8.37;;;7.53;;
2848;SDS011;59355;52.416;13.412;2023-04-24T04:50:53;8.23;;;7.57;;
2848;SDS011;59355;52.416;13.412;2023-04-24T04:53:19;8.70;;;7.90;;
2848;SDS011;59355;52.416;13.412;2023-04-24T04:55:44;7.20;;;6.53;;
2848;SDS011;59355;52.416;13.412;2023-04-24T04:58:09;8.07;;;7.27;;
2848;SDS011;59355;52.416;13.412;2023-04-24T05:00:35;7.20;;;6.60;;
2848;SDS011;59355;52.416;13.412;2023-04-24T05:03:02;7.43;;;6.30;;
2848;SDS011;59355;52.416;13.412;2023-04-24T05:05:28;6.77;;;6.20;;
2848;SDS011;59355;52.416;13.412;2023-04-24T05:07:53;7.30;;;6.30;;
2848;SDS011;59355;52.416;13.412;2023-04-24T05:10:18;6.13;;;5.70;;
2848;SDS011;59355;52.416;13.412;2023-04-24T05:12:44;5.83;;;5.33;;
2848;SDS011;59355;52.416;13.412;2023-04-24T05:15:09;5.77;;;5.17;;
2848;SDS011;59355;52.416;13.412;2023-04-24T05:17:35;6.60;;;6.00;;
2848;SDS011;59355;52.416;13.412;2023-04-24T05:20:01;6.57;;;5.97;;
2848;SDS011;59355;52.416;13.412;2023-04-24T05:22:30;6.67;;;6.07;;
2848;SDS011;59355;52.416;13.412;2023-04-24T05:24:55;6.73;;;5.30;;
2848;SDS011;59355;52.416;13.412;2023-04-24T05:27:20;6.60;;;6.10;;
2848;SDS011;59355;52.416;13.412;2023-04-24T05:29:46;6.67;;;6.07;;
2848;SDS011;59355;52.416;13.412;2023-04-24T05:32:11;6.30;;;5.80;;
2848;SDS011;59355;52.416;13.412;2023-04-24T05:34:36;6.30;;;5.70;;
2848;SDS011;59355;52.416;13.412;2023-04-24T05:37:02;4.70;;;4.30;;
2848;SDS011;59355;52.416;13.412;2023-04-24T05:39:27;5.90;;;5.30;;
2848;SDS011;59355;52.416;13.412;2023-04-24T05:41:53;5.93;;;4.90;;
2848;SDS011;59355;52.416;13.412;2023-04-24T05:44:18;5.43;;;4.93;;
2848;SDS011;59355;52.416;13.412;2023-04-24T05:46:44;5.63;;;5.23;;
2848;SDS011;59355;52.416;13.412;2023-04-24T05:49:09;5.10;;;4.70;;
2848;SDS011;59355;52.416;13.412;2023-04-24T05:51:34;5.90;;;5.40;;
2848;SDS011;59355;52.416;13.412;2023-04-24T05:54:00;4.70;;;4.30;;
2848;SDS011;59355;52.416;13.412;2023-04-24T05:56:26;6.00;;;4.20;;
2848;SDS011;59355;52.416;13.412;2023-04-24T05:58:51;3.90;;;3.60;;
2848;SDS011;59355;52.416;13.412;2023-04-24T06:01:16;4.80;;;4.40;;
2848;SDS011;59355;52.416;13.412;2023-04-24T06:03:43;4.93;;;4.50;;
2848;SDS011;59355;52.416;13.412;2023-04-24T06:06:08;4.70;;;4.20;;
2848;SDS011;59355;52.416;13.412;2023-04-24T06:08:34;4.20;;;3.90;;
2848;SDS011;59355;52.416;13.412;2023-04-24T06:11:00;4.33;;;4.03;;
2848;SDS011;59355;52.416;13.412;2023-04-24T06:13:25;3.90;;;3.57;;
2848;SDS011;59355;52.416;13.412;2023-04-24T06:15:50;3.47;;;3.13;;
2848;SDS011;59355;52.416;13.412;2023-04-24T06:18:17;4.73;;;3.47;;
2848;SDS011;59355;52.416;13.412;2023-04-24T06:20:43;5.13;;;3.40;;
2848;SDS011;59355;52.416;13.412;2023-04-24T06:23:08;4.50;;;3.40;;
2848;SDS011;59355;52.416;13.412;2023-04-24T06:25:33;3.97;;;3.23;;
2848;SDS011;59355;52.416;13.412;2023-04-24T06:27:59;3.83;;;2.90;;
2848;SDS011;59355;52.416;13.412;2023-04-24T06:30:24;3.50;;;3.20;;
2848;SDS011;59355;52.416;13.412;2023-04-24T06:32:50;3.70;;;2.53;;
2848;SDS011;59355;52.416;13.412;2023-04-24T06:35:15;3.70;;;3.03;;
2848;SDS011;59355;52.416;13.412;2023-04-24T06:37:41;2.70;;;2.50;;
2848;SDS011;59355;52.416;13.412;2023-04-24T06:40:07;3.30;;;3.00;;
2848;SDS011;59355;52.416;13.412;2023-04-24T06:42:33;4.00;;;3.10;;
2848;SDS011;59355;52.416;13.412;2023-04-24T06:44:59;2.93;;;2.70;;
2848;SDS011;59355;52.416;13.412;2023-04-24T06:47:25;3.40;;;2.77;;
2848;SDS011;59355;52.416;13.412;2023-04-24T06:49:50;3.00;;;2.70;;
2848;SDS011;59355;52.416;13.412;2023-04-24T06:52:17;3.00;;;2.70;;
2848;SDS011;59355;52.416;13.412;2023-04-24T06:54:42;2.93;;;2.30;;
2848;SDS011;59355;52.416;13.412;2023-04-24T06:57:08;4.30;;;2.50;;
2848;SDS011;59355;52.416;13.412;2023-04-24T06:59:33;3.30;;;2.10;;
2848;SDS011;59355;52.416;13.412;2023-04-24T07:01:58;5.20;;;2.73;;
2848;SDS011;59355;52.416;13.412;2023-04-24T07:04:24;3.27;;;2.70;;
2848;SDS011;59355;52.416;13.412;2023-04-24T07:06:49;2.60;;;2.40;;
2848;SDS011;59355;52.416;13.412;2023-04-24T07:09:16;3.63;;;2.60;;
2848;SDS011;59355;52.416;13.412;2023-04-24T07:11:43;3.20;;;2.40;;
2848;SDS011;59355;52.416;13.412;2023-04-24T07:14:09;2.57;;;2.20;;
2848;SDS011;59355;52.416;13.412;2023-04-24T07:16:35;2.57;;;2.37;;
2848;SDS011;59355;52.416;13.412;2023-04-24T07:19:00;3.90;;;2.10;;
2848;SDS011;59355;52.416;13.412;2023-04-24T07:21:25;2.90;;;2.40;;
2848;SDS011;59355;52.416;13.412;2023-04-24T07:23:52;2.60;;;2.27;;
2848;SDS011;59355;52.416;13.412;2023-04-24T07:26:17;3.43;;;2.50;;
2848;SDS011;59355;52.416;13.412;2023-04-24T07:28:42;2.10;;;1.90;;
2848;SDS011;59355;52.416;13.412;2023-04-24T07:31:08;2.60;;;2.40;;
2848;SDS011;59355;52.416;13.412;2023-04-24T07:33:33;2.50;;;2.30;;
2848;SDS011;59355;52.416;13.412;2023-04-24T07:35:59;2.50;;;2.10;;
2848;SDS011;59355;52.416;13.412;2023-04-24T07:38:24;2.43;;;2.23;;
2848;SDS011;59355;52.416;13.412;2023-04-24T07:40:50;2.33;;;2.00;;
2848;SDS011;59355;52.416;13.412;2023-04-24T07:43:16;2.00;;;1.70;;
2848;SDS011;59355;52.416;13.412;2023-04-24T07:45:41;4.87;;;2.47;;
2848;SDS011;59355;52.416;13.412;2023-04-24T07:48:07;3.40;;;2.00;;
2848;SDS011;59355;52.416;13.412;2023-04-24T07:50:34;3.50;;;2.37;;
2848;SDS011;59355;52.416;13.412;2023-04-24T07:52:59;3.43;;;2.00;;
2848;SDS011;59355;52.416;13.412;2023-04-24T07:55:25;2.00;;;1.70;;
2848;SDS011;59355;52.416;13.412;2023-04-24T07:57:50;2.70;;;1.70;;
2848;SDS011;59355;52.416;13.412;2023-04-24T08:00:16;2.10;;;1.70;;
2848;SDS011;59355;52.416;13.412;2023-04-24T08:02:41;2.43;;;1.90;;
2848;SDS011;59355;52.416;13.412;2023-04-24T08:05:07;2.00;;;1.80;;
2848;SDS011;59355;52.416;13.412;2023-04-24T08:07:32;2.10;;;1.50;;
2848;SDS011;59355;52.416;13.412;2023-04-24T08:09:58;1.67;;;1.50;;
2848;SDS011;59355;52.416;13.412;2023-04-24T08:12:24;2.27;;;2.00;;
2848;SDS011;59355;52.416;13.412;2023-04-24T08:14:49;1.90;;;1.60;;
2848;SDS011;59355;52.416;13.412;2023-04-24T08:17:15;3.27;;;2.10;;
2848;SDS011;59355;52.416;13.412;2023-04-24T08:19:41;4.27;;;1.73;;
2848;SDS011;59355;52.416;13.412;2023-04-24T08:22:13;1.80;;;1.50;;
2848;SDS011;59355;52.416;13.412;2023-04-24T08:24:41;1.77;;;1.67;;
2848;SDS011;59355;52.416;13.412;2023-04-24T08:27:06;2.63;;;1.60;;
2848;SDS011;59355;52.416;13.412;2023-04-24T08:29:32;3.03;;;1.40;;
2848;SDS011;59355;52.416;13.412;2023-04-24T08:31:57;2.13;;;1.63;;
2848;SDS011;59355;52.416;13.412;2023-04-24T08:34:22;1.70;;;1.40;;
2848;SDS011;59355;52.416;13.412;2023-04-24T08:36:48;2.50;;;1.50;;
2848;SDS011;59355;52.416;13.412;2023-04-24T08:39:13;2.53;;;1.83;;
2848;SDS011;59355;52.416;13.412;2023-04-24T08:41:40;1.97;;;1.60;;
2848;SDS011;59355;52.416;13.412;2023-04-24T08:44:07;2.97;;;1.57;;
2848;SDS011;59355;52.416;13.412;2023-04-24T08:46:34;1.80;;;1.40;;
2848;SDS011;59355;52.416;13.412;2023-04-24T08:48:59;2.57;;;1.87;;
2848;SDS011;59355;52.416;13.412;2023-04-24T08:51:25;2.10;;;1.60;;
2848;SDS011;59355;52.416;13.412;2023-04-24T08:53:51;2.20;;;1.90;;
2848;SDS011;59355;52.416;13.412;2023-04-24T08:56:18;3.77;;;1.83;;
2848;SDS011;59355;52.416;13.412;2023-04-24T08:58:44;2.10;;;1.47;;
2848;SDS011;59355;52.416;13.412;2023-04-24T09:01:10;3.40;;;1.50;;
2848;SDS011;59355;52.416;13.412;2023-04-24T09:03:36;2.20;;;1.70;;
2848;SDS011;59355;52.416;13.412;2023-04-24T09:06:01;2.10;;;1.70;;
2848;SDS011;59355;52.416;13.412;2023-04-24T09:08:27;4.50;;;2.20;;
2848;SDS011;59355;52.416;13.412;2023-04-24T09:10:53;2.00;;;1.70;;
2848;SDS011;59355;52.416;13.412;2023-04-24T09:13:18;2.40;;;2.00;;
2848;SDS011;59355;52.416;13.412;2023-04-24T09:15:44;2.73;;;1.83;;
2848;SDS011;59355;52.416;13.412;2023-04-24T09:18:10;2.63;;;1.80;;
2848;SDS011;59355;52.416;13.412;2023-04-24T09:20:35;2.60;;;1.83;;
2848;SDS011;59355;52.416;13.412;2023-04-24T09:23:28;2.83;;;1.60;;
2848;SDS011;59355;52.416;13.412;2023-04-24T09:25:55;1.90;;;1.70;;
2848;SDS011;59355;52.416;13.412;2023-04-24T09:28:22;2.10;;;1.90;;
2848;SDS011;59355;52.416;13.412;2023-04-24T09:31:01;2.77;;;1.90;;
2848;SDS011;59355;52.416;13.412;2023-04-24T09:34:00;2.10;;;1.57;;
2848;SDS011;59355;52.416;13.412;2023-04-24T09:36:31;1.90;;;1.60;;
2848;SDS011;59355;52.416;13.412;2023-04-24T09:39:04;1.90;;;1.70;;
2848;SDS011;59355;52.416;13.412;2023-04-24T09:41:31;1.70;;;1.60;;
2848;SDS011;59355;52.416;13.412;2023-04-24T09:43:58;1.90;;;1.70;;
2848;SDS011;59355;52.416;13.412;2023-04-24T09:46:36;1.90;;;1.70;;
2848;SDS011;59355;52.416;13.412;2023-04-24T09:49:14;3.20;;;1.67;;
2848;SDS011;59355;52.416;13.412;2023-04-24T09:51:41;3.40;;;1.60;;
2848;SDS011;59355;52.416;13.412;2023-04-24T09:54:14;2.93;;;1.70;;
2848;SDS011;59355;52.416;13.412;2023-04-24T09:56:47;1.97;;;1.60;;
2848;SDS011;59355;52.416;13.412;2023-04-24T09:59:14;1.60;;;1.43;;
2848;SDS011;59355;52.416;13.412;2023-04-24T10:01:40;1.97;;;1.70;;
2848;SDS011;59355;52.416;13.412;2023-04-24T10:04:16;2.83;;;1.40;;
2848;SDS011;59355;52.416;13.412;2023-04-24T10:06:50;2.77;;;1.60;;
2848;SDS011;59355;52.416;13.412;2023-04-24T10:09:18;3.20;;;1.63;;
2848;SDS011;59355;52.416;13.412;2023-04-24T10:11:46;3.13;;;1.50;;
2848;SDS011;59355;52.416;13.412;2023-04-24T10:14:13;2.40;;;1.60;;
2848;SDS011;59355;52.416;13.412;2023-04-24T10:16:40;6.00;;;1.67;;
2848;SDS011;59355;52.416;13.412;2023-04-24T10:19:06;3.27;;;1.80;;
2848;SDS011;59355;52.416;13.412;2023-04-24T10:21:31;2.53;;;1.70;;
2848;SDS011;59355;52.416;13.412;2023-04-24T10:23:57;2.10;;;1.43;;
2848;SDS011;59355;52.416;13.412;2023-04-24T10:26:22;2.17;;;1.80;;
2848;SDS011;59355;52.416;13.412;2023-04-24T10:28:48;2.67;;;1.50;;
2848;SDS011;59355;52.416;13.412;2023-04-24T10:31:14;2.17;;;1.97;;
2848;SDS011;59355;52.416;13.412;2023-04-24T10:33:41;1.97;;;1.50;;
2848;SDS011;59355;52.416;13.412;2023-04-24T10:36:07;2.10;;;1.57;;
2848;SDS011;59355;52.416;13.412;2023-04-24T10:38:34;1.97;;;1.77;;
2848;SDS011;59355;52.416;13.412;2023-04-24T10:41:10;2.03;;;1.70;;
2848;SDS011;59355;52.416;13.412;2023-04-24T10:43:44;2.00;;;1.77;;
2848;SDS011;59355;52.416;13.412;2023-04-24T10:46:09;2.20;;;1.73;;
2848;SDS011;59355;52.416;13.412;2023-04-24T10:48:35;2.00;;;1.47;;
2848;SDS011;59355;52.416;13.412;2023-04-24T10:51:00;2.23;;;1.63;;
2848;SDS011;59355;52.416;13.412;2023-04-24T10:53:29;1.93;;;1.60;;
2848;SDS011;59355;52.416;13.412;2023-04-24T11:01:05;1.97;;;1.60;;
2848;SDS011;59355;52.416;13.412;2023-04-24T11:03:32;2.53;;;1.70;;
2848;SDS011;59355;52.416;13.412;2023-04-24T11:08:37;3.30;;;1.87;;
2848;SDS011;59355;52.416;13.412;2023-04-24T11:11:08;1.90;;;1.70;;
2848;SDS011;59355;52.416;13.412;2023-04-24T11:19:02;2.33;;;1.80;;
2848;SDS011;59355;52.416;13.412;2023-04-24T11:21:32;2.57;;;1.57;;
2848;SDS011;59355;52.416;13.412;2023-04-24T11:26:50;3.03;;;2.30;;
2848;SDS011;59355;52.416;13.412;2023-04-24T11:29:17;5.00;;;2.90;;
2848;SDS011;59355;52.416;13.412;2023-04-24T11:31:44;6.23;;;3.50;;
2848;SDS011;59355;52.416;13.412;2023-04-24T11:34:16;3.90;;;2.90;;
2848;SDS011;59355;52.416;13.412;2023-04-24T11:36:43;3.70;;;2.77;;
2848;SDS011;59355;52.416;13.412;2023-04-24T11:39:09;5.53;;;3.63;;
2848;SDS011;59355;52.416;13.412;2023-04-24T11:41:36;2.50;;;2.20;;
2848;SDS011;59355;52.416;13.412;2023-04-24T11:44:01;3.93;;;2.80;;
2848;SDS011;59355;52.416;13.412;2023-04-24T11:46:28;2.50;;;2.30;;
2848;SDS011;59355;52.416;13.412;2023-04-24T11:48:55;2.43;;;2.00;;
2848;SDS011;59355;52.416;13.412;2023-04-24T11:51:22;2.50;;;2.10;;
2848;SDS011;59355;52.416;13.412;2023-04-24T11:53:48;3.37;;;2.70;;
2848;SDS011;59355;52.416;13.412;2023-04-24T11:56:16;2.20;;;2.00;;
2848;SDS011;59355;52.416;13.412;2023-04-24T11:58:44;3.00;;;2.20;;
2848;SDS011;59355;52.416;13.412;2023-04-24T12:01:09;2.13;;;1.93;;
2848;SDS011;59355;52.416;13.412;2023-04-24T12:03:34;2.80;;;2.50;;
2848;SDS011;59355;52.416;13.412;2023-04-24T12:06:09;2.00;;;1.70;;
2848;SDS011;59355;52.416;13.412;2023-04-24T12:08:36;2.33;;;1.97;;
2848;SDS011;59355;52.416;13.412;2023-04-24T12:11:02;3.93;;;2.43;;
2848;SDS011;59355;52.416;13.412;2023-04-24T12:13:29;3.77;;;2.00;;
2848;SDS011;59355;52.416;13.412;2023-04-24T12:15:54;2.90;;;2.37;;
2848;SDS011;59355;52.416;13.412;2023-04-24T12:18:24;1.90;;;1.77;;
2848;SDS011;59355;52.416;13.412;2023-04-24T12:20:49;2.07;;;1.87;;
2848;SDS011;59355;52.416;13.412;2023-04-24T12:23:14;4.40;;;1.63;;
2848;SDS011;59355;52.416;13.412;2023-04-24T12:25:40;2.73;;;1.83;;
2848;SDS011;59355;52.416;13.412;2023-04-24T12:30:32;4.87;;;1.87;;
2848;SDS011;59355;52.416;13.412;2023-04-24T12:32:58;2.20;;;1.60;;
2848;SDS011;59355;52.416;13.412;2023-04-24T12:35:27;3.10;;;2.03;;
2848;SDS011;59355;52.416;13.412;2023-04-24T12:37:53;3.57;;;1.67;;
2848;SDS011;59355;52.416;13.412;2023-04-24T12:40:19;1.80;;;1.60;;
2848;SDS011;59355;52.416;13.412;2023-04-24T12:42:47;1.90;;;1.60;;
2848;SDS011;59355;52.416;13.412;2023-04-24T12:45:16;1.60;;;1.47;;
2848;SDS011;59355;52.416;13.412;2023-04-24T12:47:43;2.73;;;1.50;;
2848;SDS011;59355;52.416;13.412;2023-04-24T12:50:13;1.40;;;1.20;;
2848;SDS011;59355;52.416;13.412;2023-04-24T12:52:39;1.60;;;1.27;;
2848;SDS011;59355;52.416;13.412;2023-04-24T12:55:05;1.83;;;1.73;;
2848;SDS011;59355;52.416;13.412;2023-04-24T12:57:33;3.37;;;1.83;;
2848;SDS011;59355;52.416;13.412;2023-04-24T12:59:58;1.70;;;1.33;;
2848;SDS011;59355;52.416;13.412;2023-04-24T13:02:24;1.80;;;1.60;;
2848;SDS011;59355;52.416;13.412;2023-04-24T13:04:50;2.47;;;1.50;;
2848;SDS011;59355;52.416;13.412;2023-04-24T13:07:16;1.70;;;1.60;;
2848;SDS011;59355;52.416;13.412;2023-04-24T13:09:42;2.30;;;1.93;;
2848;SDS011;59355;52.416;13.412;2023-04-24T13:12:08;1.70;;;1.43;;
2848;SDS011;59355;52.416;13.412;2023-04-24T13:14:34;2.33;;;1.57;;
2848;SDS011;59355;52.416;13.412;2023-04-24T13:16:59;1.83;;;1.70;;
2848;SDS011;59355;52.416;13.412;2023-04-24T13:19:25;2.70;;;1.67;;
2848;SDS011;59355;52.416;13.412;2023-04-24T13:21:56;6.17;;;1.80;;
2848;SDS011;59355;52.416;13.412;2023-04-24T13:24:25;2.13;;;1.63;;
2848;SDS011;59355;52.416;13.412;2023-04-24T13:26:50;2.40;;;1.77;;
2848;SDS011;59355;52.416;13.412;2023-04-24T13:29:19;3.70;;;1.37;;
2848;SDS011;59355;52.416;13.412;2023-04-24T13:31:45;2.23;;;1.40;;
2848;SDS011;59355;52.416;13.412;2023-04-24T13:34:11;1.87;;;1.67;;
2848;SDS011;59355;52.416;13.412;2023-04-24T13:36:37;1.90;;;1.37;;
2848;SDS011;59355;52.416;13.412;2023-04-24T13:39:02;3.13;;;1.63;;
2848;SDS011;59355;52.416;13.412;2023-04-24T13:41:32;1.70;;;1.30;;
2848;SDS011;59355;52.416;13.412;2023-04-24T13:43:57;1.90;;;1.50;;
2848;SDS011;59355;52.416;13.412;2023-04-24T13:46:23;1.80;;;1.53;;
2848;SDS011;59355;52.416;13.412;2023-04-24T13:48:48;2.50;;;1.37;;
2848;SDS011;59355;52.416;13.412;2023-04-24T13:51:13;1.70;;;1.37;;
2848;SDS011;59355;52.416;13.412;2023-04-24T13:53:39;1.70;;;1.50;;
2848;SDS011;59355;52.416;13.412;2023-04-24T13:56:04;1.50;;;1.40;;
2848;SDS011;59355;52.416;13.412;2023-04-24T13:58:30;2.73;;;1.67;;
2848;SDS011;59355;52.416;13.412;2023-04-24T14:00:57;2.40;;;2.10;;
2848;SDS011;59355;52.416;13.412;2023-04-24T14:03:22;1.90;;;1.40;;
2848;SDS011;59355;52.416;13.412;2023-04-24T14:05:47;3.40;;;1.77;;
2848;SDS011;59355;52.416;13.412;2023-04-24T14:08:13;2.37;;;1.53;;
2848;SDS011;59355;52.416;13.412;2023-04-24T14:10:38;1.60;;;1.40;;
2848;SDS011;59355;52.416;13.412;2023-04-24T14:13:03;1.90;;;1.40;;
2848;SDS011;59355;52.416;13.412;2023-04-24T14:15:29;2.43;;;1.60;;
2848;SDS011;59355;52.416;13.412;2023-04-24T14:17:54;2.57;;;1.83;;
2848;SDS011;59355;52.416;13.412;2023-04-24T14:20:20;2.10;;;1.50;;
2848;SDS011;59355;52.416;13.412;2023-04-24T14:22:45;1.73;;;1.60;;
2848;SDS011;59355;52.416;13.412;2023-04-24T14:25:10;1.70;;;1.20;;
2848;SDS011;59355;52.416;13.412;2023-04-24T14:27:36;1.50;;;1.33;;
2848;SDS011;59355;52.416;13.412;2023-04-24T14:30:01;2.07;;;1.40;;
2848;SDS011;59355;52.416;13.412;2023-04-24T14:32:26;2.60;;;1.83;;
2848;SDS011;59355;52.416;13.412;2023-04-24T14:34:52;2.43;;;1.80;;
2848;SDS011;59355;52.416;13.412;2023-04-24T14:37:17;2.20;;;1.50;;
2848;SDS011;59355;52.416;13.412;2023-04-24T14:39:43;2.17;;;1.80;;
2848;SDS011;59355;52.416;13.412;2023-04-24T14:42:08;1.70;;;1.60;;
2848;SDS011;59355;52.416;13.412;2023-04-24T14:44:33;2.00;;;1.63;;
2848;SDS011;59355;52.416;13.412;2023-04-24T14:46:59;1.57;;;1.47;;
2848;SDS011;59355;52.416;13.412;2023-04-24T14:49:24;2.00;;;1.43;;
2848;SDS011;59355;52.416;13.412;2023-04-24T14:51:50;4.10;;;1.90;;
2848;SDS011;59355;52.416;13.412;2023-04-24T14:54:15;2.70;;;1.70;;
2848;SDS011;59355;52.416;13.412;2023-04-24T14:56:41;2.43;;;1.90;;
2848;SDS011;59355;52.416;13.412;2023-04-24T14:59:07;2.90;;;1.90;;